Decoded Metar for KOGB (ORANGEBURG in SC, USA) (IATA:OGB) | Meteo·Mobile Aviation Weather
aviador You're here:

KOGB Decoded Metar

ORANGEBURG in SC, USA
Report Time2018-09-24 07:53:00
UTC Time2018-09-24 08:07:37
Flight Rules vfr VFR
Wind040° at 04 kt
W.Decomp.*RWY 05: 4.0 kt HW 0.2 kt LCW
RWY 35: 2.2 kt HW 3.4 kt RCW
W.Rank040° ranks 5
Current wind is below 040° avg. (6.5)
Visibility9999 m
Phenomena:N/A
Clouds:Overcast 090 Hf
Expected CloudBase > 400 ft AGL from Temp-Dew spread
Ceiling9,000 ft
Temp22°C (ISA +7)
Dew Point21°C (94% RH)
QNH1019 hPa
Density Alt1,181 ft
Elevation194 ft
Report Wrong Elevation
Raw Report
METAR KOGB 240753Z AUTO 04004KT 10SM OVC090 22/21 A3010 RMK AO2 SLP189
T02220206=

Extra information for KOGB:More info

Metar Taf Metar & Taf Last 4 Metars F.Rules Stats Wind Profile Meteogram Temp Stats Airport Information Weather charts Add Link Nearby VenuesMetar ALERT Operation Metar Decoded Social comments

AIRNAV info for KOGB